sensor_id;sensor_type;location;lat;lon;timestamp;pressure;altitude;pressure_sealevel;temperature;humidity
19748;BME280;10032;51.386;12.516;2024-03-02T00:00:00;99146.66;;;7.39;100.00
19748;BME280;10032;51.386;12.516;2024-03-02T00:02:26;99143.69;;;7.40;100.00
19748;BME280;10032;51.386;12.516;2024-03-02T00:04:51;99149.09;;;7.40;100.00
19748;BME280;10032;51.386;12.516;2024-03-02T00:07:17;99141.56;;;7.42;100.00
19748;BME280;10032;51.386;12.516;2024-03-02T00:09:42;99140.50;;;7.43;100.00
19748;BME280;10032;51.386;12.516;2024-03-02T00:12:08;99134.88;;;7.45;100.00
19748;BME280;10032;51.386;12.516;2024-03-02T00:14:33;99124.88;;;7.45;100.00
19748;BME280;10032;51.386;12.516;2024-03-02T00:16:59;99131.66;;;7.48;100.00
19748;BME280;10032;51.386;12.516;2024-03-02T00:19:24;99128.47;;;7.51;100.00
19748;BME280;10032;51.386;12.516;2024-03-02T00:21:50;99126.56;;;7.51;100.00
19748;BME280;10032;51.386;12.516;2024-03-02T00:24:32;99131.44;;;7.54;100.00
19748;BME280;10032;51.386;12.516;2024-03-02T00:26:58;99129.84;;;7.53;100.00
19748;BME280;10032;51.386;12.516;2024-03-02T00:29:24;99126.06;;;7.54;100.00
19748;BME280;10032;51.386;12.516;2024-03-02T00:31:50;99117.72;;;7.56;100.00
19748;BME280;10032;51.386;12.516;2024-03-02T00:34:17;99116.41;;;7.58;100.00
19748;BME280;10032;51.386;12.516;2024-03-02T00:36:42;99122.34;;;7.60;100.00
19748;BME280;10032;51.386;12.516;2024-03-02T00:39:08;99120.47;;;7.61;100.00
19748;BME280;10032;51.386;12.516;2024-03-02T00:41:33;99118.56;;;7.61;100.00
19748;BME280;10032;51.386;12.516;2024-03-02T00:44:06;99116.44;;;7.63;100.00
19748;BME280;10032;51.386;12.516;2024-03-02T00:46:38;99113.47;;;7.65;100.00
19748;BME280;10032;51.386;12.516;2024-03-02T00:49:05;99111.06;;;7.63;100.00
19748;BME280;10032;51.386;12.516;2024-03-02T00:51:33;99106.16;;;7.60;100.00
19748;BME280;10032;51.386;12.516;2024-03-02T00:54:01;99107.78;;;7.61;100.00
19748;BME280;10032;51.386;12.516;2024-03-02T00:56:29;99114.81;;;7.62;100.00
19748;BME280;10032;51.386;12.516;2024-03-02T00:58:55;99109.41;;;7.62;100.00
19748;BME280;10032;51.386;12.516;2024-03-02T01:01:20;99102.97;;;7.63;100.00
19748;BME280;10032;51.386;12.516;2024-03-02T01:03:46;99103.53;;;7.65;100.00
19748;BME280;10032;51.386;12.516;2024-03-02T01:06:12;99105.16;;;7.66;100.00
19748;BME280;10032;51.386;12.516;2024-03-02T01:08:38;99104.06;;;7.67;100.00
19748;BME280;10032;51.386;12.516;2024-03-02T01:11:04;99096.56;;;7.69;100.00
19748;BME280;10032;51.386;12.516;2024-03-02T01:13:30;99094.16;;;7.73;100.00
19748;BME280;10032;51.386;12.516;2024-03-02T01:15:56;99100.38;;;7.73;100.00
19748;BME280;10032;51.386;12.516;2024-03-02T01:18:21;99098.22;;;7.75;100.00
19748;BME280;10032;51.386;12.516;2024-03-02T01:20:50;99098.47;;;7.74;100.00
19748;BME280;10032;51.386;12.516;2024-03-02T01:23:22;99097.69;;;7.78;100.00
19748;BME280;10032;51.386;12.516;2024-03-02T01:25:48;99099.84;;;7.76;100.00
19748;BME280;10032;51.386;12.516;2024-03-02T01:28:14;99102.28;;;7.78;100.00
19748;BME280;10032;51.386;12.516;2024-03-02T01:30:40;99091.50;;;7.78;100.00
19748;BME280;10032;51.386;12.516;2024-03-02T01:33:05;99086.91;;;7.78;100.00
19748;BME280;10032;51.386;12.516;2024-03-02T01:35:32;99097.16;;;7.76;100.00
19748;BME280;10032;51.386;12.516;2024-03-02T01:37:57;99100.38;;;7.78;100.00
19748;BME280;10032;51.386;12.516;2024-03-02T01:40:23;99100.66;;;7.77;100.00
19748;BME280;10032;51.386;12.516;2024-03-02T01:42:52;99093.94;;;7.79;100.00
19748;BME280;10032;51.386;12.516;2024-03-02T01:45:23;99093.13;;;7.79;100.00
19748;BME280;10032;51.386;12.516;2024-03-02T01:47:49;99105.53;;;7.80;100.00
19748;BME280;10032;51.386;12.516;2024-03-02T01:50:15;99103.09;;;7.78;100.00
19748;BME280;10032;51.386;12.516;2024-03-02T01:52:40;99106.34;;;7.80;100.00
19748;BME280;10032;51.386;12.516;2024-03-02T01:55:06;99100.97;;;7.80;100.00
19748;BME280;10032;51.386;12.516;2024-03-02T01:57:33;99102.59;;;7.81;100.00
19748;BME280;10032;51.386;12.516;2024-03-02T01:59:59;99102.59;;;7.81;100.00
19748;BME280;10032;51.386;12.516;2024-03-02T02:02:24;99100.44;;;7.83;100.00
19748;BME280;10032;51.386;12.516;2024-03-02T02:04:50;99100.44;;;7.83;100.00
19748;BME280;10032;51.386;12.516;2024-03-02T02:07:15;99098.25;;;7.80;100.00
19748;BME280;10032;51.386;12.516;2024-03-02T02:09:41;99092.88;;;7.80;100.00
19748;BME280;10032;51.386;12.516;2024-03-02T02:12:07;99090.19;;;7.80;100.00
19748;BME280;10032;51.386;12.516;2024-03-02T02:14:33;99089.66;;;7.83;100.00
19748;BME280;10032;51.386;12.516;2024-03-02T02:16:59;99090.22;;;7.85;100.00
19748;BME280;10032;51.386;12.516;2024-03-02T02:19:25;99087.81;;;7.89;100.00
19748;BME280;10032;51.386;12.516;2024-03-02T02:21:50;99091.59;;;7.88;100.00
19748;BME280;10032;51.386;12.516;2024-03-02T02:24:15;99086.75;;;7.90;100.00
19748;BME280;10032;51.386;12.516;2024-03-02T02:26:41;99085.41;;;7.92;100.00
19748;BME280;10032;51.386;12.516;2024-03-02T02:29:06;99090.56;;;7.94;100.00
19748;BME280;10032;51.386;12.516;2024-03-02T02:31:41;99087.59;;;7.95;100.00
19748;BME280;10032;51.386;12.516;2024-03-02T02:34:07;99093.53;;;7.97;100.00
19748;BME280;10032;51.386;12.516;2024-03-02T02:36:33;99084.38;;;7.98;100.00
19748;BME280;10032;51.386;12.516;2024-03-02T02:39:02;99085.97;;;7.94;100.00
19748;BME280;10032;51.386;12.516;2024-03-02T02:41:29;99089.22;;;7.96;100.00
19748;BME280;10032;51.386;12.516;2024-03-02T02:43:54;99094.06;;;7.99;100.00
19748;BME280;10032;51.386;12.516;2024-03-02T02:46:20;99093.03;;;8.00;100.00
19748;BME280;10032;51.386;12.516;2024-03-02T02:48:45;99084.94;;;8.00;100.00
19748;BME280;10032;51.386;12.516;2024-03-02T02:51:10;99085.75;;;8.01;100.00
19748;BME280;10032;51.386;12.516;2024-03-02T02:53:36;99087.34;;;8.02;100.00
19748;BME280;10032;51.386;12.516;2024-03-02T02:56:06;99084.41;;;8.03;100.00
19748;BME280;10032;51.386;12.516;2024-03-02T02:58:31;99089.00;;;8.03;100.00
19748;BME280;10032;51.386;12.516;2024-03-02T03:00:56;99083.63;;;8.03;100.00
19748;BME280;10032;51.386;12.516;2024-03-02T03:03:22;99085.47;;;8.02;100.00
19748;BME280;10032;51.386;12.516;2024-03-02T03:05:48;99076.31;;;8.03;100.00
19748;BME280;10032;51.386;12.516;2024-03-02T03:08:14;99079.00;;;8.03;100.00
19748;BME280;10032;51.386;12.516;2024-03-02T03:10:41;99081.97;;;8.02;100.00
19748;BME280;10032;51.386;12.516;2024-03-02T03:13:06;99081.72;;;8.03;100.00
19748;BME280;10032;51.386;12.516;2024-03-02T03:15:34;99078.50;;;8.06;100.00
19748;BME280;10032;51.386;12.516;2024-03-02T03:18:00;99086.03;;;8.04;100.00
19748;BME280;10032;51.386;12.516;2024-03-02T03:20:25;99086.03;;;8.04;100.00
19748;BME280;10032;51.386;12.516;2024-03-02T03:22:51;99091.97;;;8.01;100.00
19748;BME280;10032;51.386;12.516;2024-03-02T03:25:16;99091.69;;;8.03;100.00
19748;BME280;10032;51.386;12.516;2024-03-02T03:27:41;99092.75;;;8.02;100.00
19748;BME280;10032;51.386;12.516;2024-03-02T03:30:07;99097.63;;;8.05;100.00
19748;BME280;10032;51.386;12.516;2024-03-02T03:32:32;99095.72;;;8.00;100.00
19748;BME280;10032;51.386;12.516;2024-03-02T03:34:58;99098.97;;;8.02;100.00
19748;BME280;10032;51.386;12.516;2024-03-02T03:37:23;99102.16;;;7.99;100.00
19748;BME280;10032;51.386;12.516;2024-03-02T03:39:50;99105.94;;;7.98;100.00
19748;BME280;10032;51.386;12.516;2024-03-02T03:42:16;99108.38;;;8.00;100.00
19748;BME280;10032;51.386;12.516;2024-03-02T03:44:42;99107.03;;;7.97;100.00
19748;BME280;10032;51.386;12.516;2024-03-02T03:47:07;99111.91;;;8.00;100.00
19748;BME280;10032;51.386;12.516;2024-03-02T03:49:32;99108.13;;;8.01;100.00
19748;BME280;10032;51.386;12.516;2024-03-02T03:51:58;99107.31;;;8.01;100.00
19748;BME280;10032;51.386;12.516;2024-03-02T03:54:23;99103.81;;;8.00;100.00
19748;BME280;10032;51.386;12.516;2024-03-02T03:56:49;99109.75;;;8.02;100.00
19748;BME280;10032;51.386;12.516;2024-03-02T03:59:14;99111.38;;;8.03;100.00
19748;BME280;10032;51.386;12.516;2024-03-02T04:01:39;99107.59;;;8.04;100.00
19748;BME280;10032;51.386;12.516;2024-03-02T04:04:05;99109.75;;;8.02;100.00
19748;BME280;10032;51.386;12.516;2024-03-02T04:06:30;99105.72;;;8.05;100.00
19748;BME280;10032;51.386;12.516;2024-03-02T04:08:56;99104.91;;;8.04;100.00
19748;BME280;10032;51.386;12.516;2024-03-02T04:11:21;99108.97;;;8.07;100.00
19748;BME280;10032;51.386;12.516;2024-03-02T04:13:47;99105.47;;;8.06;100.00
19748;BME280;10032;51.386;12.516;2024-03-02T04:16:12;99115.72;;;8.09;100.00
19748;BME280;10032;51.386;12.516;2024-03-02T04:18:38;99115.47;;;8.11;100.00
19748;BME280;10032;51.386;12.516;2024-03-02T04:21:05;99114.41;;;8.12;100.00
19748;BME280;10032;51.386;12.516;2024-03-02T04:23:30;99109.84;;;8.12;100.00
19748;BME280;10032;51.386;12.516;2024-03-02T04:25:56;99113.59;;;8.11;100.00
19748;BME280;10032;51.386;12.516;2024-03-02T04:28:21;99114.69;;;8.10;100.00
19748;BME280;10032;51.386;12.516;2024-03-02T04:30:47;99120.09;;;8.10;100.00
19748;BME280;10032;51.386;12.516;2024-03-02T04:33:12;99113.06;;;8.14;100.00
19748;BME280;10032;51.386;12.516;2024-03-02T04:35:38;99117.09;;;8.12;100.00
19748;BME280;10032;51.386;12.516;2024-03-02T04:38:03;99124.41;;;8.11;100.00
19748;BME280;10032;51.386;12.516;2024-03-02T04:40:29;99128.72;;;8.12;100.00
19748;BME280;10032;51.386;12.516;2024-03-02T04:42:54;99133.56;;;8.10;100.00
19748;BME280;10032;51.386;12.516;2024-03-02T04:45:20;99133.56;;;8.10;100.00
19748;BME280;10032;51.386;12.516;2024-03-02T04:47:45;99128.44;;;8.09;100.00
19748;BME280;10032;51.386;12.516;2024-03-02T04:50:10;99147.31;;;8.09;100.00
19748;BME280;10032;51.386;12.516;2024-03-02T04:52:36;99144.88;;;8.07;100.00
19748;BME280;10032;51.386;12.516;2024-03-02T04:55:02;99145.94;;;8.06;100.00
19748;BME280;10032;51.386;12.516;2024-03-02T04:57:47;99149.44;;;8.07;100.00
19748;BME280;10032;51.386;12.516;2024-03-02T05:00:13;99144.34;;;8.10;100.00
19748;BME280;10032;51.386;12.516;2024-03-02T05:02:38;99138.97;;;8.10;100.00
19748;BME280;10032;51.386;12.516;2024-03-02T05:05:04;99132.50;;;8.11;100.00
19748;BME280;10032;51.386;12.516;2024-03-02T05:07:29;99134.38;;;8.11;100.00
19748;BME280;10032;51.386;12.516;2024-03-02T05:09:55;99139.75;;;8.11;100.00
19748;BME280;10032;51.386;12.516;2024-03-02T05:12:20;99138.13;;;8.10;100.00
19748;BME280;10032;51.386;12.516;2024-03-02T05:15:13;99138.97;;;8.10;100.00
19748;BME280;10032;51.386;12.516;2024-03-02T05:17:40;99142.72;;;8.09;100.00
19748;BME280;10032;51.386;12.516;2024-03-02T05:20:08;99139.47;;;8.07;100.00
19748;BME280;10032;51.386;12.516;2024-03-02T05:22:34;99151.88;;;8.08;100.00
19748;BME280;10032;51.386;12.516;2024-03-02T05:25:00;99145.94;;;8.06;100.00
19748;BME280;10032;51.386;12.516;2024-03-02T05:27:26;99150.50;;;8.06;100.00
19748;BME280;10032;51.386;12.516;2024-03-02T05:29:52;99151.34;;;8.06;100.00
19748;BME280;10032;51.386;12.516;2024-03-02T05:32:17;99156.72;;;8.06;100.00
19748;BME280;10032;51.386;12.516;2024-03-02T05:34:43;99157.22;;;8.03;100.00
19748;BME280;10032;51.386;12.516;2024-03-02T05:37:08;99156.44;;;8.03;100.00
19748;BME280;10032;51.386;12.516;2024-03-02T05:39:33;99162.63;;;8.03;100.00
19748;BME280;10032;51.386;12.516;2024-03-02T05:41:59;99164.78;;;8.01;100.00
19748;BME280;10032;51.386;12.516;2024-03-02T05:44:24;99165.31;;;8.03;100.00
19748;BME280;10032;51.386;12.516;2024-03-02T05:46:50;99165.31;;;8.03;100.00
19748;BME280;10032;51.386;12.516;2024-03-02T05:49:15;99178.00;;;8.03;100.00
19748;BME280;10032;51.386;12.516;2024-03-02T05:51:41;99167.75;;;8.05;100.00
19748;BME280;10032;51.386;12.516;2024-03-02T05:54:07;99177.72;;;8.04;100.00
19748;BME280;10032;51.386;12.516;2024-03-02T05:56:32;99183.66;;;8.01;100.00
19748;BME280;10032;51.386;12.516;2024-03-02T05:58:58;99178.81;;;8.03;100.00
19748;BME280;10032;51.386;12.516;2024-03-02T06:01:41;99187.47;;;8.05;100.00
19748;BME280;10032;51.386;12.516;2024-03-02T06:04:08;99191.78;;;8.06;100.00
19748;BME280;10032;51.386;12.516;2024-03-02T06:06:34;99195.56;;;8.05;100.00
19748;BME280;10032;51.386;12.516;2024-03-02T06:09:00;99196.34;;;8.06;100.00
19748;BME280;10032;51.386;12.516;2024-03-02T06:11:26;99195.56;;;8.05;100.00
19748;BME280;10032;51.386;12.516;2024-03-02T06:13:51;99202.34;;;8.08;100.00
19748;BME280;10032;51.386;12.516;2024-03-02T06:16:17;99200.97;;;8.05;100.00
19748;BME280;10032;51.386;12.516;2024-03-02T06:18:42;99202.56;;;8.06;100.00
19748;BME280;10032;51.386;12.516;2024-03-02T06:21:07;99210.16;;;8.09;100.00
19748;BME280;10032;51.386;12.516;2024-03-02T06:23:33;99204.50;;;8.11;100.00
19748;BME280;10032;51.386;12.516;2024-03-02T06:26:00;99203.69;;;8.10;100.00
19748;BME280;10032;51.386;12.516;2024-03-02T06:28:25;99202.63;;;8.11;100.00
19748;BME280;10032;51.386;12.516;2024-03-02T06:30:51;99201.56;;;8.12;100.00
19748;BME280;10032;51.386;12.516;2024-03-02T06:33:17;99199.69;;;8.18;100.00
19748;BME280;10032;51.386;12.516;2024-03-02T06:35:42;99204.84;;;8.19;100.00
19748;BME280;10032;51.386;12.516;2024-03-02T06:38:07;99190.88;;;8.22;100.00
19748;BME280;10032;51.386;12.516;2024-03-02T06:40:33;99202.78;;;8.26;100.00
19748;BME280;10032;51.386;12.516;2024-03-02T06:42:59;99201.72;;;8.27;100.00
19748;BME280;10032;51.386;12.516;2024-03-02T06:45:24;99198.44;;;8.25;100.00
19748;BME280;10032;51.386;12.516;2024-03-02T06:47:50;99199.50;;;8.24;100.00
19748;BME280;10032;51.386;12.516;2024-03-02T06:50:16;99191.47;;;8.29;100.00
19748;BME280;10032;51.386;12.516;2024-03-02T06:52:41;99197.97;;;8.33;100.00
19748;BME280;10032;51.386;12.516;2024-03-02T06:55:07;99194.19;;;8.34;100.00
19748;BME280;10032;51.386;12.516;2024-03-02T06:57:32;99204.50;;;8.37;100.00
19748;BME280;10032;51.386;12.516;2024-03-02T06:59:58;99202.38;;;8.44;100.00
19748;BME280;10032;51.386;12.516;2024-03-02T07:02:27;99199.97;;;8.48;100.00
19748;BME280;10032;51.386;12.516;2024-03-02T07:04:55;99198.63;;;8.50;100.00
19748;BME280;10032;51.386;12.516;2024-03-02T07:07:21;99206.47;;;8.52;100.00
19748;BME280;10032;51.386;12.516;2024-03-02T07:09:46;99200.53;;;8.55;100.00
19748;BME280;10032;51.386;12.516;2024-03-02T07:12:13;99207.03;;;8.54;100.00
19748;BME280;10032;51.386;12.516;2024-03-02T07:14:38;99205.94;;;8.55;100.00
19748;BME280;10032;51.386;12.516;2024-03-02T07:17:30;99213.28;;;8.59;100.00
19748;BME280;10032;51.386;12.516;2024-03-02T07:19:56;99216.03;;;8.64;100.00
19748;BME280;10032;51.386;12.516;2024-03-02T07:22:22;99210.63;;;8.64;100.00
19748;BME280;10032;51.386;12.516;2024-03-02T07:24:48;99217.38;;;8.67;100.00
19748;BME280;10032;51.386;12.516;2024-03-02T07:27:16;99211.72;;;8.68;100.00
19748;BME280;10032;51.386;12.516;2024-03-02T07:29:42;99207.41;;;8.72;100.00
19748;BME280;10032;51.386;12.516;2024-03-02T07:32:09;99220.41;;;8.75;100.00
19748;BME280;10032;51.386;12.516;2024-03-02T07:34:34;99220.44;;;8.80;100.00
19748;BME280;10032;51.386;12.516;2024-03-02T07:37:00;99224.22;;;8.79;100.00
19748;BME280;10032;51.386;12.516;2024-03-02T07:39:26;99216.41;;;8.83;100.00
19748;BME280;10032;51.386;12.516;2024-03-02T07:41:51;99228.00;;;8.83;100.00
19748;BME280;10032;51.386;12.516;2024-03-02T07:44:17;99229.66;;;8.84;100.00
19748;BME280;10032;51.386;12.516;2024-03-02T07:46:45;99228.88;;;8.89;100.00
19748;BME280;10032;51.386;12.516;2024-03-02T07:49:20;99234.31;;;8.94;100.00
19748;BME280;10032;51.386;12.516;2024-03-02T07:51:45;99232.97;;;8.96;100.00
19748;BME280;10032;51.386;12.516;2024-03-02T07:54:11;99236.78;;;9.00;100.00
19748;BME280;10032;51.386;12.516;2024-03-02T07:56:36;99235.16;;;9.04;100.00
19748;BME280;10032;51.386;12.516;2024-03-02T07:59:02;99244.91;;;9.10;100.00
19748;BME280;10032;51.386;12.516;2024-03-02T08:01:31;99245.75;;;9.16;100.00
19748;BME280;10032;51.386;12.516;2024-03-02T08:03:58;99246.88;;;9.20;100.00
19748;BME280;10032;51.386;12.516;2024-03-02T08:06:27;99247.16;;;9.23;100.00
19748;BME280;10032;51.386;12.516;2024-03-02T08:08:56;99248.28;;;9.32;100.00
19748;BME280;10032;51.386;12.516;2024-03-02T08:11:21;99249.91;;;9.33;100.00
19748;BME280;10032;51.386;12.516;2024-03-02T08:13:47;99248.31;;;9.37;100.00
19748;BME280;10032;51.386;12.516;2024-03-02T08:16:14;99248.59;;;9.41;100.00
19748;BME280;10032;51.386;12.516;2024-03-02T08:18:40;99252.94;;;9.47;100.00
19748;BME280;10032;51.386;12.516;2024-03-02T08:21:05;99253.75;;;9.52;100.00
19748;BME280;10032;51.386;12.516;2024-03-02T08:23:34;99249.47;;;9.56;100.00
19748;BME280;10032;51.386;12.516;2024-03-02T08:26:00;99254.88;;;9.61;100.00
19748;BME280;10032;51.386;12.516;2024-03-02T08:28:25;99250.56;;;9.65;100.00
19748;BME280;10032;51.386;12.516;2024-03-02T08:30:51;99244.91;;;9.67;100.00
19748;BME280;10032;51.386;12.516;2024-03-02T08:33:16;99253.56;;;9.74;100.00
19748;BME280;10032;51.386;12.516;2024-03-02T08:35:42;99259.25;;;9.77;100.00
19748;BME280;10032;51.386;12.516;2024-03-02T08:38:07;99258.75;;;9.80;100.00
19748;BME280;10032;51.386;12.516;2024-03-02T08:40:33;99265.78;;;9.81;100.00
19748;BME280;10032;51.386;12.516;2024-03-02T08:42:58;99264.69;;;9.82;100.00
19748;BME280;10032;51.386;12.516;2024-03-02T08:45:26;99264.69;;;9.87;100.00
19748;BME280;10032;51.386;12.516;2024-03-02T08:47:52;99263.88;;;9.92;100.00
19748;BME280;10032;51.386;12.516;2024-03-02T08:50:18;99268.53;;;9.96;100.00
19748;BME280;10032;51.386;12.516;2024-03-02T08:52:43;99270.41;;;10.01;100.00
19748;BME280;10032;51.386;12.516;2024-03-02T08:55:08;99274.00;;;10.06;100.00
19748;BME280;10032;51.386;12.516;2024-03-02T08:57:34;99281.03;;;10.12;100.00
19748;BME280;10032;51.386;12.516;2024-03-02T09:00:00;99276.72;;;10.16;100.00
19748;BME280;10032;51.386;12.516;2024-03-02T09:02:26;99279.97;;;10.18;100.00
19748;BME280;10032;51.386;12.516;2024-03-02T09:04:52;99275.38;;;10.24;100.00
19748;BME280;10032;51.386;12.516;2024-03-02T09:07:18;99282.13;;;10.31;100.00
19748;BME280;10032;51.386;12.516;2024-03-02T09:09:43;99279.44;;;10.36;100.00
19748;BME280;10032;51.386;12.516;2024-03-02T09:12:09;99282.72;;;10.43;100.00
19748;BME280;10032;51.386;12.516;2024-03-02T09:14:35;99286.47;;;10.52;100.00
19748;BME280;10032;51.386;12.516;2024-03-02T09:17:02;99286.22;;;10.64;100.00
19748;BME280;10032;51.386;12.516;2024-03-02T09:19:27;99281.91;;;10.73;100.00
19748;BME280;10032;51.386;12.516;2024-03-02T09:21:53;99282.69;;;10.78;100.00
19748;BME280;10032;51.386;12.516;2024-03-02T09:24:20;99278.09;;;10.89;100.00
19748;BME280;10032;51.386;12.516;2024-03-02T09:26:46;99284.28;;;10.99;100.00
19748;BME280;10032;51.386;12.516;2024-03-02T09:29:11;99276.41;;;11.13;100.00
19748;BME280;10032;51.386;12.516;2024-03-02T09:31:40;99293.47;;;11.28;100.00
19748;BME280;10032;51.386;12.516;2024-03-02T09:34:07;99295.59;;;11.36;100.00
19748;BME280;10032;51.386;12.516;2024-03-02T09:36:32;99295.03;;;11.49;100.00
19748;BME280;10032;51.386;12.516;2024-03-02T09:38:58;99302.09;;;11.60;100.00
19748;BME280;10032;51.386;12.516;2024-03-02T09:41:23;99303.19;;;11.59;100.00
19748;BME280;10032;51.386;12.516;2024-03-02T09:43:49;99296.38;;;11.67;100.00
19748;BME280;10032;51.386;12.516;2024-03-02T09:46:15;99305.28;;;11.72;100.00
19748;BME280;10032;51.386;12.516;2024-03-02T09:48:40;99297.97;;;11.73;100.00
19748;BME280;10032;51.386;12.516;2024-03-02T09:51:06;99310.72;;;11.72;100.00
19748;BME280;10032;51.386;12.516;2024-03-02T09:53:33;99302.00;;;11.80;100.00
19748;BME280;10032;51.386;12.516;2024-03-02T09:55:59;99316.09;;;11.87;100.00
19748;BME280;10032;51.386;12.516;2024-03-02T09:58:26;99308.47;;;11.84;100.00
19748;BME280;10032;51.386;12.516;2024-03-02T10:00:52;99306.81;;;11.93;100.00
19748;BME280;10032;51.386;12.516;2024-03-02T10:03:18;99308.97;;;12.01;100.00
19748;BME280;10032;51.386;12.516;2024-03-02T10:05:44;99312.69;;;12.10;100.00
19748;BME280;10032;51.386;12.516;2024-03-02T10:08:09;99303.97;;;12.18;100.00
19748;BME280;10032;51.386;12.516;2024-03-02T10:10:39;99300.94;;;12.30;100.00
19748;BME280;10032;51.386;12.516;2024-03-02T10:13:06;99304.06;;;12.47;100.00
19748;BME280;10032;51.386;12.516;2024-03-02T10:15:33;99311.56;;;12.60;100.00
19748;BME280;10032;51.386;12.516;2024-03-02T10:17:59;99314.72;;;12.72;100.00
19748;BME280;10032;51.386;12.516;2024-03-02T10:20:25;99300.78;;;12.83;100.00
19748;BME280;10032;51.386;12.516;2024-03-02T10:22:51;99310.50;;;12.89;100.00
19748;BME280;10032;51.386;12.516;2024-03-02T10:25:30;99304.78;;;12.96;100.00
19748;BME280;10032;51.386;12.516;2024-03-02T10:27:58;99299.50;;;13.09;100.00
19748;BME280;10032;51.386;12.516;2024-03-02T10:30:24;99293.91;;;13.24;100.00
19748;BME280;10032;51.386;12.516;2024-03-02T10:32:49;99300.41;;;13.28;100.00
19748;BME280;10032;51.386;12.516;2024-03-02T10:35:16;99295.94;;;13.37;100.00
19748;BME280;10032;51.386;12.516;2024-03-02T10:37:42;99291.19;;;13.48;100.00
19748;BME280;10032;51.386;12.516;2024-03-02T10:40:10;99290.75;;;13.64;100.00
19748;BME280;10032;51.386;12.516;2024-03-02T10:42:37;99282.25;;;13.89;100.00
19748;BME280;10032;51.386;12.516;2024-03-02T10:45:09;99284.84;;;13.99;100.00
19748;BME280;10032;51.386;12.516;2024-03-02T10:47:36;99280.06;;;14.10;100.00
19748;BME280;10032;51.386;12.516;2024-03-02T10:50:04;99282.25;;;14.08;100.00
19748;BME280;10032;51.386;12.516;2024-03-02T10:52:34;99285.31;;;14.25;100.00
19748;BME280;10032;51.386;12.516;2024-03-02T10:55:00;99284.09;;;14.54;100.00
19748;BME280;10032;51.386;12.516;2024-03-02T10:57:26;99284.13;;;14.68;100.00
19748;BME280;10032;51.386;12.516;2024-03-02T11:00:02;99289.66;;;14.63;100.00
19748;BME280;10032;51.386;12.516;2024-03-02T11:02:30;99274.72;;;14.60;100.00
19748;BME280;10032;51.386;12.516;2024-03-02T11:04:56;99281.53;;;14.76;100.00
19748;BME280;10032;51.386;12.516;2024-03-02T11:07:24;99281.09;;;15.01;100.00
19748;BME280;10032;51.386;12.516;2024-03-02T11:10:01;99275.69;;;15.28;100.00
19748;BME280;10032;51.386;12.516;2024-03-02T11:12:38;99277.97;;;15.53;100.00
19748;BME280;10032;51.386;12.516;2024-03-02T11:15:10;99272.19;;;15.68;100.00
19748;BME280;10032;51.386;12.516;2024-03-02T11:17:39;99269.16;;;15.70;100.00
19748;BME280;10032;51.386;12.516;2024-03-02T11:20:07;99281.31;;;15.77;100.00
19748;BME280;10032;51.386;12.516;2024-03-02T11:22:35;99279.06;;;15.79;100.00
19748;BME280;10032;51.386;12.516;2024-03-02T11:25:01;99277.56;;;15.73;100.00
19748;BME280;10032;51.386;12.516;2024-03-02T11:33:02;99271.28;;;16.35;100.00
19748;BME280;10032;51.386;12.516;2024-03-02T11:35:46;99269.97;;;16.46;100.00
19748;BME280;10032;51.386;12.516;2024-03-02T11:38:12;99276.91;;;16.52;100.00
19748;BME280;10032;51.386;12.516;2024-03-02T11:40:41;99269.47;;;16.44;100.00
19748;BME280;10032;51.386;12.516;2024-03-02T11:43:07;99264.50;;;16.33;100.00
19748;BME280;10032;51.386;12.516;2024-03-02T11:45:33;99269.66;;;16.34;100.00
19748;BME280;10032;51.386;12.516;2024-03-02T11:47:59;99262.56;;;16.33;100.00
19748;BME280;10032;51.386;12.516;2024-03-02T11:50:42;99267.22;;;16.46;100.00
19748;BME280;10032;51.386;12.516;2024-03-02T11:53:09;99268.66;;;16.44;100.00
19748;BME280;10032;51.386;12.516;2024-03-02T11:55:39;99270.03;;;16.55;100.00
19748;BME280;10032;51.386;12.516;2024-03-02T11:58:06;99268.97;;;16.64;100.00
19748;BME280;10032;51.386;12.516;2024-03-02T12:00:32;99270.09;;;16.63;100.00
19748;BME280;10032;51.386;12.516;2024-03-02T12:03:02;99269.03;;;16.73;100.00
19748;BME280;10032;51.386;12.516;2024-03-02T12:05:29;99265.94;;;16.66;100.00
19748;BME280;10032;51.386;12.516;2024-03-02T12:07:59;99269.72;;;16.78;100.00
19748;BME280;10032;51.386;12.516;2024-03-02T12:10:25;99263.19;;;16.88;100.00
19748;BME280;10032;51.386;12.516;2024-03-02T12:12:57;99264.47;;;16.90;100.00
19748;BME280;10032;51.386;12.516;2024-03-02T12:15:28;99256.91;;;16.87;100.00
19748;BME280;10032;51.386;12.516;2024-03-02T12:17:55;99257.28;;;16.94;100.00
19748;BME280;10032;51.386;12.516;2024-03-02T12:20:22;99252.53;;;17.08;100.00
19748;BME280;10032;51.386;12.516;2024-03-02T12:22:52;99249.03;;;17.16;100.00
19748;BME280;10032;51.386;12.516;2024-03-02T12:25:19;99239.16;;;17.07;100.00
19748;BME280;10032;51.386;12.516;2024-03-02T12:27:46;99245.78;;;17.14;100.00
19748;BME280;10032;51.386;12.516;2024-03-02T12:30:13;99239.56;;;17.31;100.00
19748;BME280;10032;51.386;12.516;2024-03-02T12:32:40;99233.94;;;17.27;100.00
19748;BME280;10032;51.386;12.516;2024-03-02T12:35:07;99239.69;;;17.17;100.00
19748;BME280;10032;51.386;12.516;2024-03-02T12:37:33;99236.47;;;17.15;100.00
19748;BME280;10032;51.386;12.516;2024-03-02T12:39:59;99233.09;;;17.18;100.00
19748;BME280;10032;51.386;12.516;2024-03-02T12:42:24;99241.66;;;17.25;100.00
19748;BME280;10032;51.386;12.516;2024-03-02T12:44:53;99231.03;;;17.24;98.58
19748;BME280;10032;51.386;12.516;2024-03-02T12:47:21;99227.66;;;17.27;100.00
19748;BME280;10032;51.386;12.516;2024-03-02T12:49:46;99234.06;;;17.44;100.00